sensor_id;sensor_type;location;lat;lon;timestamp;temperature;humidity
7476;DHT22;3779;49.216;8.650;2023-08-21T02:13:51;27.10;89.10
7476;DHT22;3779;49.216;8.650;2023-08-21T02:16:37;27.10;89.10
7476;DHT22;3779;49.216;8.650;2023-08-21T02:19:23;27.20;88.60
7476;DHT22;3779;49.216;8.650;2023-08-21T02:22:09;27.20;88.50
7476;DHT22;3779;49.216;8.650;2023-08-21T02:24:55;27.20;88.60
7476;DHT22;3779;49.216;8.650;2023-08-21T02:27:41;27.20;88.70
7476;DHT22;3779;49.216;8.650;2023-08-21T02:30:28;27.20;88.70
7476;DHT22;3779;49.216;8.650;2023-08-21T02:33:14;27.20;88.60
7476;DHT22;3779;49.216;8.650;2023-08-21T02:36:00;27.20;88.40
7476;DHT22;3779;49.216;8.650;2023-08-21T02:38:49;27.20;88.20
7476;DHT22;3779;49.216;8.650;2023-08-21T02:41:35;27.20;88.40
7476;DHT22;3779;49.216;8.650;2023-08-21T02:44:21;27.20;88.40
7476;DHT22;3779;49.216;8.650;2023-08-21T02:47:07;27.10;88.20
7476;DHT22;3779;49.216;8.650;2023-08-21T02:49:53;27.10;88.10
7476;DHT22;3779;49.216;8.650;2023-08-21T02:52:39;27.10;87.90
7476;DHT22;3779;49.216;8.650;2023-08-21T02:55:25;27.20;87.90
7476;DHT22;3779;49.216;8.650;2023-08-21T02:58:10;27.20;87.90
7476;DHT22;3779;49.216;8.650;2023-08-21T03:00:58;27.10;87.80
7476;DHT22;3779;49.216;8.650;2023-08-21T03:03:44;27.10;87.70
7476;DHT22;3779;49.216;8.650;2023-08-21T03:06:30;27.10;87.80
7476;DHT22;3779;49.216;8.650;2023-08-21T03:09:16;27.10;87.80
7476;DHT22;3779;49.216;8.650;2023-08-21T03:12:02;27.10;87.70
7476;DHT22;3779;49.216;8.650;2023-08-21T03:14:48;27.10;87.50
7476;DHT22;3779;49.216;8.650;2023-08-21T03:17:35;27.10;87.60
7476;DHT22;3779;49.216;8.650;2023-08-21T03:28:50;27.10;88.00
7476;DHT22;3779;49.216;8.650;2023-08-21T03:31:36;27.10;87.70
7476;DHT22;3779;49.216;8.650;2023-08-21T03:34:22;27.10;87.50
7476;DHT22;3779;49.216;8.650;2023-08-21T03:37:11;27.10;87.40
7476;DHT22;3779;49.216;8.650;2023-08-21T03:39:57;27.10;87.40
7476;DHT22;3779;49.216;8.650;2023-08-21T03:42:42;27.10;87.30
7476;DHT22;3779;49.216;8.650;2023-08-21T03:45:29;27.10;87.20
7476;DHT22;3779;49.216;8.650;2023-08-21T03:48:14;27.10;87.10
7476;DHT22;3779;49.216;8.650;2023-08-21T03:51:00;27.10;87.10
7476;DHT22;3779;49.216;8.650;2023-08-21T03:53:46;27.10;87.00
7476;DHT22;3779;49.216;8.650;2023-08-21T03:56:32;27.10;86.80
7476;DHT22;3779;49.216;8.650;2023-08-21T03:59:18;27.10;86.60
7476;DHT22;3779;49.216;8.650;2023-08-21T04:02:04;27.00;86.50
7476;DHT22;3779;49.216;8.650;2023-08-21T04:04:49;27.00;86.50
7476;DHT22;3779;49.216;8.650;2023-08-21T04:07:35;27.00;86.20
7476;DHT22;3779;49.216;8.650;2023-08-21T04:10:21;27.10;86.00
7476;DHT22;3779;49.216;8.650;2023-08-21T04:13:07;27.00;86.00
7476;DHT22;3779;49.216;8.650;2023-08-21T04:15:54;27.00;86.10
7476;DHT22;3779;49.216;8.650;2023-08-21T04:18:42;27.00;86.10
7476;DHT22;3779;49.216;8.650;2023-08-21T04:21:28;27.00;86.10
7476;DHT22;3779;49.216;8.650;2023-08-21T04:24:13;27.00;86.60
7476;DHT22;3779;49.216;8.650;2023-08-21T04:26:59;27.00;85.60
7476;DHT22;3779;49.216;8.650;2023-08-21T04:29:45;27.00;85.70
7476;DHT22;3779;49.216;8.650;2023-08-21T04:32:31;27.00;85.90
7476;DHT22;3779;49.216;8.650;2023-08-21T04:35:17;27.00;85.90
7476;DHT22;3779;49.216;8.650;2023-08-21T04:38:03;27.00;86.00
7476;DHT22;3779;49.216;8.650;2023-08-21T04:40:50;27.00;86.00
7476;DHT22;3779;49.216;8.650;2023-08-21T04:43:36;27.00;85.90
7476;DHT22;3779;49.216;8.650;2023-08-21T04:46:23;27.00;85.90
7476;DHT22;3779;49.216;8.650;2023-08-21T04:49:09;27.00;86.00
7476;DHT22;3779;49.216;8.650;2023-08-21T04:51:55;27.00;86.00
7476;DHT22;3779;49.216;8.650;2023-08-21T04:54:41;27.00;86.00
7476;DHT22;3779;49.216;8.650;2023-08-21T04:57:27;27.00;86.10
7476;DHT22;3779;49.216;8.650;2023-08-21T05:00:13;27.00;86.70
7476;DHT22;3779;49.216;8.650;2023-08-21T05:03:01;27.00;85.90
7476;DHT22;3779;49.216;8.650;2023-08-21T05:05:55;27.00;86.00
7476;DHT22;3779;49.216;8.650;2023-08-21T05:08:41;27.00;86.20
7476;DHT22;3779;49.216;8.650;2023-08-21T05:11:29;27.00;86.00
7476;DHT22;3779;49.216;8.650;2023-08-21T05:14:14;26.90;86.10
7476;DHT22;3779;49.216;8.650;2023-08-21T05:17:00;27.00;86.40
7476;DHT22;3779;49.216;8.650;2023-08-21T05:19:46;27.00;86.70
7476;DHT22;3779;49.216;8.650;2023-08-21T05:22:32;27.00;87.00
7476;DHT22;3779;49.216;8.650;2023-08-21T05:25:18;26.90;87.30
7476;DHT22;3779;49.216;8.650;2023-08-21T05:28:04;27.00;87.80
7476;DHT22;3779;49.216;8.650;2023-08-21T05:30:50;26.90;87.90
7476;DHT22;3779;49.216;8.650;2023-08-21T05:33:37;27.00;88.30
7476;DHT22;3779;49.216;8.650;2023-08-21T05:36:24;27.00;88.60
7476;DHT22;3779;49.216;8.650;2023-08-21T05:39:10;27.00;88.50
7476;DHT22;3779;49.216;8.650;2023-08-21T05:41:57;27.00;88.70
7476;DHT22;3779;49.216;8.650;2023-08-21T05:44:44;27.00;88.80
7476;DHT22;3779;49.216;8.650;2023-08-21T05:47:30;27.00;89.00
7476;DHT22;3779;49.216;8.650;2023-08-21T05:50:16;27.00;89.10
7476;DHT22;3779;49.216;8.650;2023-08-21T05:53:06;27.00;89.10
7476;DHT22;3779;49.216;8.650;2023-08-21T05:55:53;27.00;89.20
7476;DHT22;3779;49.216;8.650;2023-08-21T10:35:34;26.80;90.50
7476;DHT22;3779;49.216;8.650;2023-08-21T11:29:19;27.10;89.20
7476;DHT22;3779;49.216;8.650;2023-08-21T14:17:17;26.90;89.40
7476;DHT22;3779;49.216;8.650;2023-08-21T14:20:03;26.90;89.20
7476;DHT22;3779;49.216;8.650;2023-08-21T14:22:50;26.90;89.00
7476;DHT22;3779;49.216;8.650;2023-08-21T14:25:36;26.90;88.90
7476;DHT22;3779;49.216;8.650;2023-08-21T14:28:22;26.90;89.00
7476;DHT22;3779;49.216;8.650;2023-08-21T14:31:18;26.90;89.00
7476;DHT22;3779;49.216;8.650;2023-08-21T14:34:06;26.90;89.80
7476;DHT22;3779;49.216;8.650;2023-08-21T14:37:00;26.80;88.90
7476;DHT22;3779;49.216;8.650;2023-08-21T14:39:49;26.90;88.90
7476;DHT22;3779;49.216;8.650;2023-08-21T14:42:37;26.90;88.90
7476;DHT22;3779;49.216;8.650;2023-08-21T14:45:23;26.90;89.00
7476;DHT22;3779;49.216;8.650;2023-08-21T14:48:09;26.90;88.80
7476;DHT22;3779;49.216;8.650;2023-08-21T14:50:55;27.00;88.70
7476;DHT22;3779;49.216;8.650;2023-08-21T14:53:41;27.00;87.90
7476;DHT22;3779;49.216;8.650;2023-08-21T14:56:27;27.00;88.30
7476;DHT22;3779;49.216;8.650;2023-08-21T14:59:14;27.10;87.50
7476;DHT22;3779;49.216;8.650;2023-08-21T15:02:00;27.10;87.40
7476;DHT22;3779;49.216;8.650;2023-08-21T15:04:46;27.10;87.40
7476;DHT22;3779;49.216;8.650;2023-08-21T15:07:32;27.10;87.40
7476;DHT22;3779;49.216;8.650;2023-08-21T15:10:43;27.10;87.80
7476;DHT22;3779;49.216;8.650;2023-08-21T15:13:29;27.10;87.80
7476;DHT22;3779;49.216;8.650;2023-08-21T15:16:44;27.10;87.80
7476;DHT22;3779;49.216;8.650;2023-08-21T17:42:26;27.20;87.70
7476;DHT22;3779;49.216;8.650;2023-08-21T17:46:24;27.30;87.90
7476;DHT22;3779;49.216;8.650;2023-08-21T17:49:53;27.50;86.30
7476;DHT22;3779;49.216;8.650;2023-08-21T17:57:04;27.80;85.80
7476;DHT22;3779;49.216;8.650;2023-08-21T18:00:13;27.60;86.60
7476;DHT22;3779;49.216;8.650;2023-08-21T18:53:42;27.70;88.30
7476;DHT22;3779;49.216;8.650;2023-08-21T19:04:54;28.00;86.20
7476;DHT22;3779;49.216;8.650;2023-08-21T19:07:40;28.10;86.10
7476;DHT22;3779;49.216;8.650;2023-08-21T19:10:26;28.00;85.80
7476;DHT22;3779;49.216;8.650;2023-08-21T19:13:12;27.90;86.90
7476;DHT22;3779;49.216;8.650;2023-08-21T19:15:58;27.80;88.10
7476;DHT22;3779;49.216;8.650;2023-08-21T19:18:45;27.70;87.10
7476;DHT22;3779;49.216;8.650;2023-08-21T19:21:30;27.70;88.00
7476;DHT22;3779;49.216;8.650;2023-08-21T19:24:16;27.70;87.30
7476;DHT22;3779;49.216;8.650;2023-08-21T19:27:02;27.60;87.20
7476;DHT22;3779;49.216;8.650;2023-08-21T19:29:48;27.60;86.90
7476;DHT22;3779;49.216;8.650;2023-08-21T19:32:34;27.60;87.00
7476;DHT22;3779;49.216;8.650;2023-08-21T19:35:22;27.60;86.80
7476;DHT22;3779;49.216;8.650;2023-08-21T19:38:08;27.60;86.50
7476;DHT22;3779;49.216;8.650;2023-08-21T19:40:56;27.60;86.30
7476;DHT22;3779;49.216;8.650;2023-08-21T19:43:42;27.60;86.40
7476;DHT22;3779;49.216;8.650;2023-08-21T19:46:28;27.70;88.10
7476;DHT22;3779;49.216;8.650;2023-08-21T19:49:14;27.90;87.50
7476;DHT22;3779;49.216;8.650;2023-08-21T19:52:00;27.90;85.10
7476;DHT22;3779;49.216;8.650;2023-08-21T19:54:47;27.70;85.40
7476;DHT22;3779;49.216;8.650;2023-08-21T19:57:34;27.70;85.60
7476;DHT22;3779;49.216;8.650;2023-08-21T21:16:00;27.60;83.60
7476;DHT22;3779;49.216;8.650;2023-08-21T21:21:42;27.60;83.60
7476;DHT22;3779;49.216;8.650;2023-08-21T21:24:28;27.60;83.60
7476;DHT22;3779;49.216;8.650;2023-08-21T21:33:13;27.70;83.60
7476;DHT22;3779;49.216;8.650;2023-08-21T22:23:19;27.60;85.20
7476;DHT22;3779;49.216;8.650;2023-08-21T22:26:05;27.50;84.50
7476;DHT22;3779;49.216;8.650;2023-08-21T22:28:51;27.50;84.60
7476;DHT22;3779;49.216;8.650;2023-08-21T22:31:37;27.50;84.60
7476;DHT22;3779;49.216;8.650;2023-08-21T22:34:22;27.50;84.60
7476;DHT22;3779;49.216;8.650;2023-08-21T22:37:08;27.50;84.70
7476;DHT22;3779;49.216;8.650;2023-08-21T22:39:54;27.50;84.70
7476;DHT22;3779;49.216;8.650;2023-08-21T22:42:40;27.50;84.80
7476;DHT22;3779;49.216;8.650;2023-08-21T22:45:26;27.50;84.70
7476;DHT22;3779;49.216;8.650;2023-08-21T22:48:12;27.60;85.50
7476;DHT22;3779;49.216;8.650;2023-08-21T22:51:02;27.70;84.70
7476;DHT22;3779;49.216;8.650;2023-08-21T22:53:49;27.70;84.60
7476;DHT22;3779;49.216;8.650;2023-08-21T22:56:39;27.70;84.50
7476;DHT22;3779;49.216;8.650;2023-08-21T22:59:25;27.70;84.40
7476;DHT22;3779;49.216;8.650;2023-08-21T23:02:11;27.70;84.60
7476;DHT22;3779;49.216;8.650;2023-08-21T23:05:22;27.70;84.60
7476;DHT22;3779;49.216;8.650;2023-08-21T23:08:09;27.70;85.80
7476;DHT22;3779;49.216;8.650;2023-08-21T23:10:55;27.90;86.10
7476;DHT22;3779;49.216;8.650;2023-08-21T23:13:41;27.90;87.20
7476;DHT22;3779;49.216;8.650;2023-08-21T23:16:33;27.90;86.80
7476;DHT22;3779;49.216;8.650;2023-08-21T23:19:23;27.90;86.90
7476;DHT22;3779;49.216;8.650;2023-08-21T23:22:09;27.90;87.10
7476;DHT22;3779;49.216;8.650;2023-08-21T23:24:55;27.90;87.50
7476;DHT22;3779;49.216;8.650;2023-08-21T23:28:06;27.90;87.80
7476;DHT22;3779;49.216;8.650;2023-08-21T23:30:52;27.80;87.70
7476;DHT22;3779;49.216;8.650;2023-08-21T23:33:40;27.80;88.00
7476;DHT22;3779;49.216;8.650;2023-08-21T23:36:26;27.80;88.00
7476;DHT22;3779;49.216;8.650;2023-08-21T23:39:12;27.80;87.80
7476;DHT22;3779;49.216;8.650;2023-08-21T23:41:58;27.80;87.70
7476;DHT22;3779;49.216;8.650;2023-08-21T23:44:45;27.70;87.60
7476;DHT22;3779;49.216;8.650;2023-08-21T23:47:31;27.70;87.60
7476;DHT22;3779;49.216;8.650;2023-08-21T23:50:17;27.70;87.50
7476;DHT22;3779;49.216;8.650;2023-08-21T23:53:06;27.70;87.20
7476;DHT22;3779;49.216;8.650;2023-08-21T23:55:52;27.70;87.10
7476;DHT22;3779;49.216;8.650;2023-08-21T23:58:39;27.70;87.00
